Time;durP1;ratioP1;P1;durP2;ratioP2;P2;SDS_P1;SDS_P2;PMS_P1;PMS_P2;Temp;Humidity;BMP_temperature;BMP_pressure;BME280_temperature;BME280_humidity;BME280_pressure;Samples;Min_cycle;Max_cycle;Signal;HPM_P1;HPM_P2
2023/02/07 00:00:34;;;;;;;;;46.00;31.00;;;;;6.30;100.00;103332.47;5076066;28;51393;-74
2023/02/07 00:03:00;;;;;;;;;63.50;43.25;;;;;6.28;100.00;103323.56;5056478;28;64702;-75
2023/02/07 00:05:27;;;;;;;;;32.50;21.00;;;;;6.32;100.00;103335.19;5057682;28;45257;-75
2023/02/07 00:07:52;;;;;;;;;13.75;12.25;;;;;6.32;100.00;103335.19;5057428;28;45351;-74
2023/02/07 00:10:18;;;;;;;;;16.75;9.00;;;;;6.32;100.00;103328.22;5056916;28;55540;-75
2023/02/07 00:12:43;;;;;;;;;13.00;11.00;;;;;6.30;100.00;103317.63;5074091;28;55848;-75
2023/02/07 00:15:09;;;;;;;;;18.50;14.00;;;;;6.25;100.00;103312.88;5075197;28;45327;-74
2023/02/07 00:17:34;;;;;;;;;8.25;8.25;;;;;6.26;100.00;103307.72;5079114;28;45320;-74
2023/02/07 00:19:59;;;;;;;;;10.00;9.00;;;;;6.23;100.00;103307.53;5078622;28;45466;-75
2023/02/07 00:22:25;;;;;;;;;12.50;6.00;;;;;6.23;100.00;103294.41;5061011;28;60277;-75
2023/02/07 00:24:50;;;;;;;;;17.25;10.75;;;;;6.25;100.00;103294.50;5078905;28;45361;-75
2023/02/07 00:27:16;;;;;;;;;8.50;7.25;;;;;6.25;100.00;103295.41;5058317;28;46003;-75
2023/02/07 00:29:41;;;;;;;;;11.75;8.00;;;;;6.24;100.00;103290.06;5057887;28;45555;-75
2023/02/07 00:32:07;;;;;;;;;9.25;7.25;;;;;6.23;100.00;103304.91;5078554;28;58646;-74
2023/02/07 00:34:34;;;;;;;;;9.50;6.00;;;;;6.22;100.00;103299.53;5078975;28;45545;-75
2023/02/07 00:37:00;;;;;;;;;10.00;5.25;;;;;6.19;100.00;103295.00;5040565;28;45459;-74
2023/02/07 00:39:26;;;;;;;;;11.00;8.50;;;;;6.17;100.00;103296.59;5058826;28;45554;-75
2023/02/07 00:41:51;;;;;;;;;10.75;6.00;;;;;6.17;100.00;103296.59;5059904;28;66053;-75
2023/02/07 00:44:16;;;;;;;;;9.75;7.25;;;;;6.17;100.00;103293.06;5074330;28;45491;-75
2023/02/07 00:46:42;;;;;;;;;13.50;9.00;;;;;6.17;100.00;103299.22;5078962;28;55125;-75
2023/02/07 00:49:07;;;;;;;;;9.00;8.00;;;;;6.15;100.00;103302.56;5079347;28;45623;-75
2023/02/07 00:51:33;;;;;;;;;16.00;12.50;;;;;6.12;100.00;103303.25;5078931;28;46454;-74
2023/02/07 00:53:59;;;;;;;;;11.50;9.00;;;;;6.02;100.00;103291.22;5060944;28;45486;-75
2023/02/07 00:56:27;;;;;;;;;2.00;2.00;;;;;6.01;100.00;103302.50;5079324;28;45319;-74
2023/02/07 00:58:52;;;;;;;;;14.50;10.75;;;;;5.96;100.00;103303.00;5060649;28;45496;-75
2023/02/07 01:01:19;;;;;;;;;35.50;17.50;;;;;5.91;100.00;103306.97;5092886;27;45657;-74
2023/02/07 01:03:44;;;;;;;;;12.50;8.25;;;;;5.88;100.00;103298.91;5072817;28;45458;-75
2023/02/07 01:06:10;;;;;;;;;21.50;8.25;;;;;5.84;100.00;103300.41;5060247;28;45525;-74
2023/02/07 01:08:35;;;;;;;;;18.75;12.50;;;;;5.85;100.00;103309.16;5060609;28;45550;-75
2023/02/07 01:11:03;;;;;;;;;12.00;9.25;;;;;5.84;100.00;103300.41;5078119;28;46821;-74
2023/02/07 01:13:29;;;;;;;;;33.75;21.00;;;;;5.84;100.00;103309.97;5059981;28;45634;-74
2023/02/07 01:15:55;;;;;;;;;43.00;30.50;;;;;5.83;100.00;103311.69;5078811;28;45351;-75
2023/02/07 01:18:20;;;;;;;;;26.75;18.25;;;;;5.79;100.00;103309.66;5059232;28;53515;-75
2023/02/07 01:20:45;;;;;;;;;41.50;25.00;;;;;5.77;100.00;103313.88;5059722;28;62858;-74
2023/02/07 01:23:12;;;;;;;;;70.00;44.75;;;;;5.75;100.00;103311.16;5077308;28;59703;-74
2023/02/07 01:25:38;;;;;;;;;36.50;21.50;;;;;5.70;100.00;103294.22;5060451;28;45489;-75
2023/02/07 01:28:03;;;;;;;;;24.25;13.50;;;;;5.69;100.00;103291.44;5058528;28;45474;-74
2023/02/07 01:30:29;;;;;;;;;22.25;15.75;;;;;5.71;100.00;103293.41;5060164;28;45344;-74
2023/02/07 01:32:54;;;;;;;;;22.75;14.50;;;;;5.71;100.00;103295.13;5059854;28;45506;-75
2023/02/07 01:35:19;;;;;;;;;14.25;9.25;;;;;5.70;100.00;103302.06;5059815;28;45344;-74
2023/02/07 01:37:45;;;;;;;;;13.25;10.00;;;;;5.69;100.00;103291.44;5059198;28;54361;-75
2023/02/07 01:40:12;;;;;;;;;9.50;6.75;;;;;5.66;100.00;103278.16;5060298;28;46761;-75
2023/02/07 01:42:37;;;;;;;;;16.75;12.00;;;;;5.70;100.00;103294.22;5059959;28;45470;-74
2023/02/07 01:45:14;;;;;;;;;12.75;11.25;;;;;5.69;100.00;103281.88;5059213;28;56398;-75
2023/02/07 01:47:39;;;;;;;;;12.00;8.00;;;;;5.69;100.00;103280.97;5059065;28;45878;-75
2023/02/07 01:50:05;;;;;;;;;16.25;10.25;;;;;5.69;100.00;103292.34;5077196;28;66969;-74
2023/02/07 01:52:36;;;;;;;;;6.50;6.00;;;;;5.67;100.00;103283.50;5077747;28;45291;-75
2023/02/07 01:55:07;;;;;;;;;13.00;9.00;;;;;5.65;100.00;103285.09;5060011;28;45348;-75
2023/02/07 01:57:32;;;;;;;;;11.00;8.00;;;;;5.63;100.00;103277.91;5077160;28;45653;-74
2023/02/07 01:59:58;;;;;;;;;12.00;9.75;;;;;5.62;100.00;103271.78;5059433;28;45784;-74
2023/02/07 02:02:28;;;;;;;;;12.75;9.00;;;;;5.63;100.00;103284.06;5076784;28;60819;-74
2023/02/07 02:04:54;;;;;;;;;13.75;8.25;;;;;5.65;100.00;103269.38;5046394;28;45349;-74
2023/02/07 02:07:19;;;;;;;;;8.25;5.25;;;;;5.65;100.00;103272.00;5071496;28;50453;-75
2023/02/07 02:09:44;;;;;;;;;5.75;5.75;;;;;5.64;100.00;103280.63;5058113;28;67005;-74
2023/02/07 02:12:30;;;;;;;;;12.75;6.50;;;;;5.64;100.00;103280.63;5074268;28;57824;-74
2023/02/07 02:15:07;;;;;;;;;11.75;5.00;;;;;5.61;100.00;103274.28;5055630;28;45398;-74
2023/02/07 02:18:01;;;;;;;;;12.75;8.00;;;;;5.56;100.00;103270.44;5071705;28;45477;-75
2023/02/07 02:20:46;;;;;;;;;10.25;8.50;;;;;5.56;100.00;103273.06;5056233;28;46664;-75
2023/02/07 02:23:23;;;;;;;;;7.00;7.00;;;;;5.55;100.00;103266.91;5075520;28;45352;-74
2023/02/07 02:26:10;;;;;;;;;8.00;5.50;;;;;5.56;100.00;103265.19;5077556;28;45336;-74
2023/02/07 02:29:06;;;;;;;;;11.00;8.50;;;;;5.56;100.00;103259.97;5077543;28;45289;-74
2023/02/07 02:31:43;;;;;;;;;7.00;5.00;;;;;5.53;100.00;103266.78;5076915;28;47454;-75
2023/02/07 02:34:29;;;;;;;;;10.75;8.00;;;;;5.52;100.00;103262.34;5077205;28;45217;-75
2023/02/07 02:37:02;;;;;;;;;8.50;8.25;;;;;5.50;100.00;103257.81;5077649;28;45414;-75
2023/02/07 02:39:54;;;;;;;;;5.75;5.75;;;;;5.46;100.00;103256.69;5058960;28;45529;-75
2023/02/07 02:42:38;;;;;;;;;12.25;9.50;;;;;5.45;100.00;103254.88;5070228;28;46468;-75
2023/02/07 02:45:11;;;;;;;;;10.00;7.50;;;;;5.47;100.00;103247.09;5076625;28;45368;-75
2023/02/07 02:47:38;;;;;;;;;11.00;6.00;;;;;5.47;100.00;103241.88;5067838;28;45350;-74
2023/02/07 02:50:09;;;;;;;;;10.25;8.25;;;;;5.46;100.00;103266.25;5042122;28;45388;-74
2023/02/07 02:52:35;;;;;;;;;12.50;9.50;;;;;5.44;100.00;103260.91;5058999;28;45884;-74
2023/02/07 02:55:00;;;;;;;;;10.00;9.00;;;;;5.43;100.00;103259.09;5071255;28;54865;-75
2023/02/07 02:57:26;;;;;;;;;19.75;8.50;;;;;5.44;100.00;103260.00;5076804;28;55301;-74
2023/02/07 02:59:57;;;;;;;;;12.50;6.50;;;;;5.42;100.00;103266.84;5076618;28;45356;-75
2023/02/07 03:02:41;;;;;;;;;8.50;6.00;;;;;5.36;100.00;103267.31;5077225;28;46968;-74
2023/02/07 03:05:24;;;;;;;;;12.00;8.25;;;;;5.30;100.00;103251.16;5075269;28;45440;-74
2023/02/07 03:08:17;;;;;;;;;6.00;6.00;;;;;5.31;100.00;103252.06;5057575;28;45385;-75
2023/02/07 03:10:59;;;;;;;;;9.00;6.00;;;;;5.31;100.00;103260.84;5079906;27;45324;-74
2023/02/07 03:13:34;;;;;;;;;11.75;8.00;;;;;5.30;100.00;103247.63;5057892;28;45704;-75
2023/02/07 03:16:12;;;;;;;;;12.00;7.75;;;;;5.27;100.00;103250.94;5075685;28;45475;-75
2023/02/07 03:19:00;;;;;;;;;10.50;6.50;;;;;5.27;100.00;103256.16;5058328;28;45504;-75
2023/02/07 03:21:38;;;;;;;;;12.25;6.50;;;;;5.23;100.00;103260.28;5069080;28;45521;-75
2023/02/07 03:24:09;;;;;;;;;8.00;6.00;;;;;5.14;100.00;103243.91;5058379;28;45553;-75
2023/02/07 03:26:35;;;;;;;;;12.00;6.50;;;;;5.17;100.00;103245.88;5076136;28;45305;-75
2023/02/07 03:29:04;;;;;;;;;16.00;8.50;;;;;5.16;100.00;103255.41;5055303;28;54683;-74
2023/02/07 03:31:30;;;;;;;;;8.25;5.00;;;;;5.17;100.00;103253.72;5057890;28;53276;-74
2023/02/07 03:34:02;;;;;;;;;7.00;6.00;;;;;5.15;100.00;103252.69;5057921;28;46806;-74
2023/02/07 03:36:31;;;;;;;;;11.50;8.00;;;;;5.13;100.00;103247.34;5041046;28;46408;-74
2023/02/07 03:38:57;;;;;;;;;12.00;12.00;;;;;5.16;100.00;103251.88;5058266;28;45569;-74
2023/02/07 03:41:48;;;;;;;;;12.50;5.50;;;;;5.14;100.00;103243.91;5057453;28;50875;-74
2023/02/07 03:44:14;;;;;;;;;12.00;8.00;;;;;5.11;100.00;103253.25;5052660;28;47828;-75
2023/02/07 03:46:39;;;;;;;;;8.75;7.50;;;;;5.11;100.00;103259.38;5058380;28;45352;-74
2023/02/07 03:49:06;;;;;;;;;10.00;6.00;;;;;5.06;100.00;103247.72;5058256;28;45638;-75
2023/02/07 03:51:33;;;;;;;;;9.00;6.00;;;;;5.03;100.00;103247.47;5052428;28;45687;-75
2023/02/07 03:53:58;;;;;;;;;8.00;6.25;;;;;5.00;100.00;103244.63;5056573;28;48038;-74
2023/02/07 03:56:24;;;;;;;;;5.50;4.75;;;;;4.99;100.00;103259.41;5061087;28;66972;-74
2023/02/07 03:58:49;;;;;;;;;15.00;11.00;;;;;4.96;100.00;103261.84;5080255;28;45477;-74
2023/02/07 04:01:15;;;;;;;;;11.50;8.50;;;;;4.97;100.00;103266.28;5060845;28;57580;-74
2023/02/07 04:03:40;;;;;;;;;9.50;7.75;;;;;4.99;100.00;103269.00;5061414;28;45943;-75
2023/02/07 04:06:05;;;;;;;;;0.00;0.00;;;;;5.00;100.00;103261.25;5060121;28;61203;-75
2023/02/07 04:08:31;;;;;;;;;9.25;6.25;;;;;5.00;100.00;103268.19;5078766;27;56775;-74
2023/02/07 04:11:00;;;;;;;;;12.50;9.00;;;;;5.01;100.00;103267.41;5079075;28;56147;-74
2023/02/07 04:13:27;;;;;;;;;15.75;7.50;;;;;4.98;100.00;103264.56;5051093;28;45512;-75
2023/02/07 04:15:52;;;;;;;;;12.25;6.25;;;;;4.95;100.00;103269.56;5061375;28;46000;-75
2023/02/07 04:18:17;;;;;;;;;11.50;6.50;;;;;4.94;100.00;103272.97;5059568;28;51865;-75
2023/02/07 04:20:43;;;;;;;;;9.00;9.00;;;;;4.93;100.00;103272.06;5061363;28;45435;-75
2023/02/07 04:23:08;;;;;;;;;9.00;8.00;;;;;4.91;100.00;103265.81;5060825;28;59371;-75
2023/02/07 04:25:33;;;;;;;;;10.00;8.00;;;;;4.96;100.00;103266.16;5077984;28;60826;-74
2023/02/07 04:27:59;;;;;;;;;6.25;6.25;;;;;4.94;100.00;103263.41;5079666;28;55200;-75
2023/02/07 04:30:24;;;;;;;;;11.00;7.50;;;;;4.97;100.00;103275.84;5071152;28;48438;-75
2023/02/07 04:32:49;;;;;;;;;14.00;8.75;;;;;4.94;100.00;103268.66;5079084;28;46272;-75
2023/02/07 04:35:15;;;;;;;;;10.75;6.50;;;;;4.93;100.00;103271.16;5079283;28;45251;-74
2023/02/07 04:37:40;;;;;;;;;11.75;7.00;;;;;4.91;100.00;103272.78;5061102;28;45819;-74
2023/02/07 04:40:06;;;;;;;;;12.00;11.00;;;;;4.84;100.00;103271.38;5079153;28;47129;-74
2023/02/07 04:42:32;;;;;;;;;9.75;8.50;;;;;4.84;100.00;103279.25;5078145;28;46576;-74
2023/02/07 04:44:57;;;;;;;;;9.75;8.00;;;;;4.85;100.00;103283.72;5069695;28;61029;-74
2023/02/07 04:47:22;;;;;;;;;11.50;8.25;;;;;4.84;100.00;103280.97;5044151;28;45510;-74
2023/02/07 04:49:47;;;;;;;;;13.75;8.25;;;;;4.85;100.00;103293.28;5078620;28;53763;-75
2023/02/07 04:52:13;;;;;;;;;16.25;11.00;;;;;4.84;100.00;103287.09;5078001;28;63786;-74
2023/02/07 04:54:38;;;;;;;;;16.25;9.25;;;;;4.82;100.00;103282.56;5072075;28;45328;-75
2023/02/07 04:57:04;;;;;;;;;10.50;7.50;;;;;4.83;100.00;103279.13;5071061;28;45216;-74
2023/02/07 04:59:29;;;;;;;;;7.00;4.75;;;;;4.78;100.00;103277.88;5060325;28;45443;-74
2023/02/07 05:01:54;;;;;;;;;10.75;8.25;;;;;4.78;100.00;103281.41;5059480;28;45573;-74
2023/02/07 05:04:20;;;;;;;;;9.50;9.50;;;;;4.77;100.00;103278.69;5064620;28;46482;-74
2023/02/07 05:06:46;;;;;;;;;7.75;5.25;;;;;4.81;100.00;103278.13;5078191;28;50383;-74
2023/02/07 05:09:11;;;;;;;;;14.00;8.75;;;;;4.82;100.00;103277.31;5078580;28;45487;-74
2023/02/07 05:11:37;;;;;;;;;9.00;6.00;;;;;4.82;100.00;103288.69;5077694;28;46583;-74
2023/02/07 05:14:02;;;;;;;;;8.25;7.50;;;;;4.81;100.00;103301.69;5077673;28;59129;-74
2023/02/07 05:16:27;;;;;;;;;16.00;6.50;;;;;4.83;100.00;103303.59;5077393;28;48225;-75
2023/02/07 05:18:53;;;;;;;;;4.25;4.25;;;;;4.81;100.00;103304.31;5045398;28;45569;-74
2023/02/07 05:21:18;;;;;;;;;8.25;6.25;;;;;4.77;100.00;103299.63;5060085;28;46483;-75
2023/02/07 05:23:43;;;;;;;;;16.75;9.50;;;;;4.74;100.00;103295.09;5059918;28;45391;-74
2023/02/07 05:26:09;;;;;;;;;11.00;9.00;;;;;4.70;100.00;103298.28;5077089;28;45257;-74
2023/02/07 05:28:34;;;;;;;;;12.75;10.50;;;;;4.71;100.00;103310.56;5075564;28;56514;-75
2023/02/07 05:30:59;;;;;;;;;15.50;10.00;;;;;4.75;100.00;103312.63;5058499;28;62837;-74
2023/02/07 05:33:25;;;;;;;;;11.50;9.00;;;;;4.76;100.00;103310.91;5077590;28;59850;-75
2023/02/07 05:35:50;;;;;;;;;17.75;9.75;;;;;4.75;100.00;103303.84;5077537;28;58510;-75
2023/02/07 05:38:17;;;;;;;;;11.50;7.50;;;;;4.76;100.00;103297.81;5059166;28;54627;-74
2023/02/07 05:40:42;;;;;;;;;4.00;4.00;;;;;4.76;100.00;103290.88;5059686;28;45997;-75
2023/02/07 05:43:08;;;;;;;;;12.75;8.00;;;;;4.75;100.00;103296.91;5077404;28;59282;-75
2023/02/07 05:45:34;;;;;;;;;20.25;10.00;;;;;4.73;100.00;103288.91;5073553;28;45335;-75
2023/02/07 05:47:59;;;;;;;;;15.25;11.25;;;;;4.71;100.00;103295.75;5077450;28;45352;-75
2023/02/07 05:50:25;;;;;;;;;15.75;8.75;;;;;4.71;100.00;103300.09;5058663;28;46144;-75
2023/02/07 05:52:51;;;;;;;;;10.00;9.50;;;;;4.69;100.00;103304.31;5059250;28;45579;-75
2023/02/07 05:55:16;;;;;;;;;9.00;7.00;;;;;4.65;100.00;103295.31;5057879;28;55854;-73
2023/02/07 05:57:43;;;;;;;;;12.25;7.00;;;;;4.64;100.00;103309.19;5075799;28;45771;-73
2023/02/07 06:00:11;;;;;;;;;11.25;9.00;;;;;4.61;100.00;103302.81;5077182;28;45537;-73
2023/02/07 06:02:40;;;;;;;;;10.75;7.50;;;;;4.63;100.00;103311.69;5058131;28;45463;-73
2023/02/07 06:05:07;;;;;;;;;8.25;6.25;;;;;4.64;100.00;103330.13;5075597;28;46168;-75
2023/02/07 06:07:32;;;;;;;;;12.00;7.25;;;;;4.64;100.00;103330.13;5055966;28;45461;-74
2023/02/07 06:09:57;;;;;;;;;8.50;5.50;;;;;4.65;100.00;103325.81;5075917;28;46004;-72
2023/02/07 06:12:23;;;;;;;;;11.25;8.50;;;;;4.65;100.00;103313.63;5074385;28;61109;-74
2023/02/07 06:14:48;;;;;;;;;10.75;7.75;;;;;4.65;100.00;103302.25;5075126;28;45906;-73
2023/02/07 06:17:13;;;;;;;;;9.75;6.75;;;;;4.59;100.00;103305.31;5077455;28;45284;-73
2023/02/07 06:19:39;;;;;;;;;15.50;9.00;;;;;4.61;100.00;103311.56;5076222;28;65576;-76
2023/02/07 06:22:04;;;;;;;;;9.75;6.50;;;;;4.57;100.00;103319.06;5070546;28;45362;-75
2023/02/07 06:24:29;;;;;;;;;14.25;6.25;;;;;4.57;100.00;103311.22;5059144;28;55973;-75
2023/02/07 06:26:55;;;;;;;;;9.50;7.00;;;;;4.59;100.00;103325.34;5058711;28;54170;-74
2023/02/07 06:29:20;;;;;;;;;11.75;7.75;;;;;4.57;100.00;103319.06;5074870;28;64795;-75
2023/02/07 06:31:45;;;;;;;;;8.75;5.25;;;;;4.59;100.00;103315.78;5071942;28;45607;-76
2023/02/07 06:34:11;;;;;;;;;13.75;8.25;;;;;4.60;100.00;103325.44;5075723;28;48909;-75
2023/02/07 06:36:36;;;;;;;;;10.50;4.00;;;;;4.56;100.00;103322.50;5075819;28;45528;-75
2023/02/07 06:39:02;;;;;;;;;8.25;8.00;;;;;4.54;100.00;103324.09;5073874;28;63007;-75
2023/02/07 06:41:28;;;;;;;;;7.75;6.75;;;;;4.50;100.00;103317.72;5034255;28;46155;-74
2023/02/07 06:43:53;;;;;;;;;8.75;6.25;;;;;4.53;100.00;103324.84;5057207;28;45393;-73
2023/02/07 06:46:18;;;;;;;;;15.00;6.25;;;;;4.47;100.00;103320.06;5075495;28;45434;-74
2023/02/07 06:48:44;;;;;;;;;8.00;8.00;;;;;4.53;100.00;103324.84;5076078;28;64464;-73
2023/02/07 06:51:09;;;;;;;;;9.25;7.50;;;;;4.54;100.00;103322.38;5076402;28;45281;-73
2023/02/07 06:53:34;;;;;;;;;10.75;6.25;;;;;4.56;100.00;103327.72;5075838;28;47393;-75
2023/02/07 06:56:00;;;;;;;;;7.50;7.50;;;;;4.55;100.00;103334.66;5075921;28;46268;-74
2023/02/07 06:58:25;;;;;;;;;9.00;8.00;;;;;4.53;100.00;103343.16;5074556;28;59726;-74
2023/02/07 07:00:50;;;;;;;;;12.25;6.25;;;;;4.53;100.00;103337.94;5076025;28;62392;-73
2023/02/07 07:03:17;;;;;;;;;10.25;7.50;;;;;4.51;100.00;103345.69;5076144;27;54216;-73
2023/02/07 07:05:43;;;;;;;;;12.75;7.00;;;;;4.52;100.00;103333.50;5056628;28;45344;-75
2023/02/07 07:08:14;;;;;;;;;8.25;6.50;;;;;4.51;100.00;103342.16;5075991;28;45643;-75
2023/02/07 07:10:39;;;;;;;;;13.00;8.25;;;;;4.48;100.00;103348.09;5059168;28;45316;-74
2023/02/07 07:13:04;;;;;;;;;12.75;9.00;;;;;4.50;100.00;103354.34;5054127;28;56044;-74
2023/02/07 07:15:30;;;;;;;;;11.75;8.00;;;;;4.51;100.00;103365.69;5031173;27;46591;-74
2023/02/07 07:17:55;;;;;;;;;12.25;11.00;;;;;4.46;100.00;103340.09;5065697;27;45857;-74
2023/02/07 07:20:21;;;;;;;;;12.00;11.00;;;;;4.48;100.00;103355.94;5072998;27;45323;-74
2023/02/07 07:22:47;;;;;;;;;15.00;11.50;;;;;4.45;100.00;103374.91;5055582;28;49332;-74
2023/02/07 07:25:12;;;;;;;;;12.25;8.25;;;;;4.42;100.00;103366.84;5075203;28;45573;-74
2023/02/07 07:27:38;;;;;;;;;9.50;8.50;;;;;4.44;100.00;103380.03;5056018;28;61191;-74
2023/02/07 07:30:03;;;;;;;;;9.00;8.25;;;;;4.46;100.00;103365.34;5072009;27;49700;-74
2023/02/07 07:32:30;;;;;;;;;11.00;8.25;;;;;4.50;100.00;103363.88;5056846;28;45483;-74
2023/02/07 07:34:56;;;;;;;;;11.25;7.00;;;;;4.52;100.00;103359.66;5074723;28;45881;-74
2023/02/07 07:37:21;;;;;;;;;12.50;8.00;;;;;4.53;100.00;103361.47;5074054;28;46975;-74
2023/02/07 07:39:46;;;;;;;;;10.00;7.75;;;;;4.52;100.00;103365.81;5075005;28;51794;-73
2023/02/07 07:42:12;;;;;;;;;10.50;9.00;;;;;4.53;100.00;103351.97;5072634;27;45461;-74
2023/02/07 07:44:37;;;;;;;;;12.25;7.00;;;;;4.53;100.00;103340.56;5038527;28;46972;-73
2023/02/07 07:47:03;;;;;;;;;11.00;7.50;;;;;4.48;100.00;103340.25;5075226;27;46515;-73
2023/02/07 07:49:29;;;;;;;;;13.75;8.75;;;;;4.51;100.00;103353.53;5056944;28;45532;-73
2023/02/07 07:51:54;;;;;;;;;14.50;8.25;;;;;4.41;100.00;103354.53;5074454;28;55097;-73
2023/02/07 07:54:20;;;;;;;;;6.00;4.75;;;;;4.47;100.00;103367.16;5074699;28;54625;-73
2023/02/07 07:56:45;;;;;;;;;11.75;8.00;;;;;4.51;100.00;103371.84;5057521;28;46652;-73
2023/02/07 07:59:10;;;;;;;;;8.00;5.50;;;;;4.51;100.00;103366.63;5072911;28;60112;-74
2023/02/07 08:01:36;;;;;;;;;9.00;7.25;;;;;4.53;100.00;103370.28;5074985;28;53704;-73
2023/02/07 08:04:02;;;;;;;;;18.25;12.75;;;;;4.57;100.00;103379.25;5057180;28;45459;-74
2023/02/07 08:06:28;;;;;;;;;6.25;4.25;;;;;4.56;100.00;103372.19;5039855;28;48264;-74
2023/02/07 08:08:53;;;;;;;;;10.00;10.00;;;;;4.58;100.00;103371.53;5075076;28;45494;-73
2023/02/07 08:13:53;;;;;;;;;5.75;5.75;;;;;4.61;100.00;103370.84;5080995;22;46404;-73
2023/02/07 08:16:19;;;;;;;;;8.00;6.25;;;;;4.61;100.00;103383.94;5063497;28;46421;-75
2023/02/07 08:18:44;;;;;;;;;9.50;5.50;;;;;4.62;100.00;103381.41;5058293;28;59439;-75
2023/02/07 08:21:10;;;;;;;;;12.00;7.75;;;;;4.62;100.00;103376.19;5054183;28;56861;-74
2023/02/07 08:23:35;;;;;;;;;8.25;8.00;;;;;4.65;100.00;103373.81;5040122;28;45545;-75
2023/02/07 08:26:01;;;;;;;;;11.25;9.25;;;;;4.67;100.00;103381.78;5048898;28;47229;-73
2023/02/07 08:28:27;;;;;;;;;9.75;6.00;;;;;4.67;100.00;103372.22;5040409;27;45523;-73
2023/02/07 08:30:52;;;;;;;;;16.00;7.25;;;;;4.71;100.00;103389.06;5025272;28;45305;-73
2023/02/07 08:33:17;;;;;;;;;9.75;9.50;;;;;4.68;100.00;103374.03;5045455;28;45329;-73
2023/02/07 08:35:43;;;;;;;;;7.50;5.00;;;;;4.73;100.00;103383.13;5073781;27;46472;-73
2023/02/07 08:38:09;;;;;;;;;7.75;6.25;;;;;4.74;100.00;103386.69;5051684;28;45415;-72
2023/02/07 08:40:35;;;;;;;;;8.75;8.75;;;;;4.76;100.00;103392.03;5067407;28;58876;-71
2023/02/07 08:43:00;;;;;;;;;9.00;8.00;;;;;4.78;100.00;103380.88;5056425;28;45512;-73
2023/02/07 08:45:26;;;;;;;;;9.75;5.25;;;;;4.79;100.00;103371.31;5072056;28;46476;-73
2023/02/07 08:47:51;;;;;;;;;6.50;6.00;;;;;4.84;100.00;103391.81;5065492;28;45537;-73
2023/02/07 08:50:17;;;;;;;;;5.75;5.00;;;;;4.84;100.00;103393.50;5074755;28;52517;-73
2023/02/07 08:52:43;;;;;;;;;8.00;7.00;;;;;4.87;100.00;103386.81;5026974;28;45535;-73
2023/02/07 08:55:09;;;;;;;;;11.00;6.00;;;;;4.90;100.00;103380.88;5071670;27;46779;-73
2023/02/07 08:57:34;;;;;;;;;12.25;5.75;;;;;4.92;100.00;103392.41;5067094;27;45230;-74
2023/02/07 09:00:00;;;;;;;;;15.50;6.25;;;;;4.92;100.00;103388.06;5049059;28;45495;-73
2023/02/07 09:02:26;;;;;;;;;9.25;6.25;;;;;4.94;100.00;103377.69;5051925;28;45605;-73
2023/02/07 09:04:52;;;;;;;;;5.50;5.50;;;;;4.97;100.00;103376.22;5045471;28;45929;-72
2023/02/07 09:07:18;;;;;;;;;13.50;8.00;;;;;5.03;100.00;103383.63;5063183;28;45300;-72
2023/02/07 09:09:44;;;;;;;;;9.00;6.50;;;;;5.03;100.00;103378.38;5063019;28;45427;-72
2023/02/07 09:12:10;;;;;;;;;9.25;6.50;;;;;5.06;100.00;103373.41;5068827;28;45388;-73
2023/02/07 09:14:36;;;;;;;;;11.75;8.00;;;;;5.07;100.00;103366.44;5059063;28;46525;-73
2023/02/07 09:17:02;;;;;;;;;8.50;6.00;;;;;5.12;100.00;103376.47;5059175;27;45577;-73
2023/02/07 09:19:27;;;;;;;;;9.00;7.00;;;;;5.16;100.00;103388.06;5053574;28;45555;-73
2023/02/07 09:21:53;;;;;;;;;8.25;6.00;;;;;5.16;100.00;103390.69;5076460;27;45520;-73
2023/02/07 09:24:18;;;;;;;;;8.75;6.00;;;;;5.19;100.00;103398.78;5059225;28;47608;-72
2023/02/07 09:26:43;;;;;;;;;9.00;6.25;;;;;5.22;100.00;103396.41;5058316;28;45622;-74
2023/02/07 09:29:13;;;;;;;;;9.00;9.00;;;;;5.27;100.00;103400.22;5073350;28;53674;-73
2023/02/07 09:31:38;;;;;;;;;7.00;7.00;;;;;5.29;100.00;103392.50;5050887;28;45646;-72
2023/02/07 09:34:04;;;;;;;;;5.25;4.00;;;;;5.31;100.00;103389.19;5075661;27;63091;-73
2023/02/07 09:36:30;;;;;;;;;8.00;6.00;;;;;5.38;100.00;103390.53;5070626;28;50056;-74
2023/02/07 09:38:56;;;;;;;;;10.00;8.00;;;;;5.43;100.00;103397.97;5049858;28;45337;-73
2023/02/07 09:41:46;;;;;;;;;7.25;5.00;;;;;5.47;100.00;103413.09;5048161;28;55556;-74
2023/02/07 09:44:15;;;;;;;;;6.50;6.50;;;;;5.51;100.00;103411.63;5066609;28;46753;-73
2023/02/07 09:46:57;;;;;;;;;7.00;7.00;;;;;5.53;100.00;103410.91;5058398;28;45567;-72
2023/02/07 09:49:48;;;;;;;;;12.75;5.75;;;;;5.57;100.00;103412.06;5054470;28;45464;-72
2023/02/07 09:52:17;;;;;;;;;7.50;7.50;;;;;5.60;100.00;103400.91;5073355;27;45958;-73
2023/02/07 09:54:47;;;;;;;;;9.75;8.00;;;;;5.62;100.00;103421.16;5047364;28;45607;-72
2023/02/07 09:57:36;;;;;;;;;11.50;6.00;;;;;5.65;100.00;103416.16;5062583;28;45478;-73
2023/02/07 10:00:28;;;;;;;;;8.50;5.00;;;;;5.71;100.00;103428.78;5040573;27;45851;-72
2023/02/07 10:03:03;;;;;;;;;9.00;5.75;;;;;5.73;100.00;103417.59;5072166;27;46210;-74
2023/02/07 10:05:49;;;;;;;;;10.75;8.75;;;;;5.81;100.00;103417.28;5055283;28;46111;-74
2023/02/07 10:08:17;;;;;;;;;8.00;6.00;;;;;5.85;100.00;103414.03;5063820;27;46280;-73
2023/02/07 10:10:59;;;;;;;;;7.50;5.00;;;;;5.88;100.00;103416.91;5073289;28;45431;-73
2023/02/07 10:13:40;;;;;;;;;6.75;5.00;;;;;5.92;100.00;103422.50;5058301;28;45482;-73
2023/02/07 10:16:18;;;;;;;;;8.25;4.25;;;;;5.95;100.00;103412.22;5073617;28;45868;-74
2023/02/07 10:19:18;;;;;;;;;5.75;4.00;;;;;6.00;100.00;103420.41;5078179;27;45620;-74
2023/02/07 10:22:02;;;;;;;;;5.50;4.00;;;;;6.06;100.00;103415.59;5049267;28;45504;-74
2023/02/07 10:24:51;;;;;;;;;9.50;4.75;;;;;6.13;100.00;103425.75;5073651;28;45506;-74
2023/02/07 10:27:28;;;;;;;;;7.00;5.75;;;;;6.19;100.00;103413.06;5073164;28;45709;-75
2023/02/07 10:29:55;;;;;;;;;5.25;4.75;;;;;6.24;100.00;103414.28;5067491;28;45562;-74
2023/02/07 10:32:26;;;;;;;;;6.00;4.50;;;;;6.29;100.00;103406.75;5066003;27;45588;-73
2023/02/07 10:35:02;;;;;;;;;7.00;5.75;;;;;6.33;100.00;103415.72;5051603;28;45552;-73
2023/02/07 10:37:30;;;;;;;;;11.75;8.50;;;;;6.37;100.00;103417.75;5058020;28;46183;-73
2023/02/07 10:40:16;;;;;;;;;7.50;6.00;;;;;6.42;100.00;103416.38;5054521;28;45534;-74
2023/02/07 10:42:45;;;;;;;;;13.00;7.00;;;;;6.44;100.00;103413.03;5041853;28;45538;-75
2023/02/07 10:45:12;;;;;;;;;6.00;4.75;;;;;6.49;100.00;103413.34;5073027;27;45479;-74
2023/02/07 10:47:38;;;;;;;;;5.00;5.00;;;;;6.56;100.00;103415.63;5037222;28;47579;-75
2023/02/07 10:50:13;;;;;;;;;9.50;6.00;;;;;6.61;100.00;103416.84;5053737;28;45615;-74
2023/02/07 10:52:42;;;;;;;;;4.50;4.50;;;;;6.65;100.00;103407.44;5059697;28;45518;-74
2023/02/07 10:55:12;;;;;;;;;9.75;7.00;;;;;6.70;100.00;103408.66;5057550;28;45276;-74
2023/02/07 10:57:37;;;;;;;;;6.25;6.25;;;;;6.75;100.00;103405.53;5038844;27;48136;-75
2023/02/07 11:00:11;;;;;;;;;9.75;6.75;;;;;6.82;100.00;103409.53;5056906;28;45442;-74
2023/02/07 11:02:47;;;;;;;;;8.75;6.00;;;;;6.85;100.00;103408.81;5059468;28;45340;-74
2023/02/07 11:05:15;;;;;;;;;13.00;7.50;;;;;6.91;100.00;103414.47;5057164;28;45470;-75
2023/02/07 11:07:56;;;;;;;;;6.50;6.50;;;;;6.95;100.00;103408.63;5073006;28;46294;-74
2023/02/07 11:10:27;;;;;;;;;10.75;9.00;;;;;7.01;100.00;103407.28;5070849;28;45483;-74
2023/02/07 11:12:55;;;;;;;;;8.00;7.25;;;;;7.00;100.00;103394.06;5049158;28;45503;-73
2023/02/07 11:15:34;;;;;;;;;8.50;6.75;;;;;7.11;100.00;103403.56;5057085;28;45486;-75
2023/02/07 11:18:00;;;;;;;;;6.00;5.25;;;;;7.14;100.00;103390.66;5034023;28;48421;-74
2023/02/07 11:20:28;;;;;;;;;11.50;6.25;;;;;7.20;100.00;103391.06;5063860;28;45331;-73
2023/02/07 11:22:55;;;;;;;;;8.00;5.00;;;;;7.23;100.00;103398.22;5042259;28;45515;-72
2023/02/07 11:25:33;;;;;;;;;11.00;7.00;;;;;7.28;100.00;103394.16;5058598;28;45452;-75
2023/02/07 11:27:59;;;;;;;;;10.00;7.50;;;;;7.34;100.00;103384.94;5039692;28;45545;-74